sensor_id;sensor_type;location;lat;lon;timestamp;temperature;humidity
1411;DHT22;700;51.906;8.404;2023-04-29T00:03:09;16.50;99.90
1411;DHT22;700;51.906;8.404;2023-04-29T00:08:09;16.40;99.90
1411;DHT22;700;51.906;8.404;2023-04-29T00:13:11;16.30;99.90
1411;DHT22;700;51.906;8.404;2023-04-29T00:18:12;16.40;99.90
1411;DHT22;700;51.906;8.404;2023-04-29T00:23:15;16.40;99.90
1411;DHT22;700;51.906;8.404;2023-04-29T00:28:16;16.30;99.90
1411;DHT22;700;51.906;8.404;2023-04-29T00:33:21;16.20;99.90
1411;DHT22;700;51.906;8.404;2023-04-29T00:38:24;16.20;99.90
1411;DHT22;700;51.906;8.404;2023-04-29T00:43:25;16.20;99.90
1411;DHT22;700;51.906;8.404;2023-04-29T00:48:25;16.00;99.90
1411;DHT22;700;51.906;8.404;2023-04-29T00:53:26;15.90;99.90
1411;DHT22;700;51.906;8.404;2023-04-29T00:58:29;15.80;99.90
1411;DHT22;700;51.906;8.404;2023-04-29T01:03:33;15.80;99.90
1411;DHT22;700;51.906;8.404;2023-04-29T01:08:47;15.80;99.90
1411;DHT22;700;51.906;8.404;2023-04-29T01:13:58;15.90;99.90
1411;DHT22;700;51.906;8.404;2023-04-29T01:24:50;15.70;99.90
1411;DHT22;700;51.906;8.404;2023-04-29T01:40:25;15.50;99.90
1411;DHT22;700;51.906;8.404;2023-04-29T01:45:30;15.30;99.90
1411;DHT22;700;51.906;8.404;2023-04-29T01:50:31;15.40;99.90
1411;DHT22;700;51.906;8.404;2023-04-29T01:55:32;15.40;99.90
1411;DHT22;700;51.906;8.404;2023-04-29T02:00:35;15.40;99.90
1411;DHT22;700;51.906;8.404;2023-04-29T02:05:37;15.40;99.90
1411;DHT22;700;51.906;8.404;2023-04-29T02:10:38;15.30;99.90
1411;DHT22;700;51.906;8.404;2023-04-29T02:15:39;15.10;99.90
1411;DHT22;700;51.906;8.404;2023-04-29T02:20:40;14.90;99.90
1411;DHT22;700;51.906;8.404;2023-04-29T02:25:43;14.80;99.90
1411;DHT22;700;51.906;8.404;2023-04-29T02:30:46;14.80;99.90
1411;DHT22;700;51.906;8.404;2023-04-29T02:35:46;14.60;99.90
1411;DHT22;700;51.906;8.404;2023-04-29T02:40:47;14.70;99.90
1411;DHT22;700;51.906;8.404;2023-04-29T02:45:50;14.60;99.90
1411;DHT22;700;51.906;8.404;2023-04-29T02:50:51;14.70;99.90
1411;DHT22;700;51.906;8.404;2023-04-29T02:55:54;14.70;99.90
1411;DHT22;700;51.906;8.404;2023-04-29T03:00:58;14.60;99.90
1411;DHT22;700;51.906;8.404;2023-04-29T03:05:59;14.70;99.90
1411;DHT22;700;51.906;8.404;2023-04-29T03:11:02;14.70;99.90
1411;DHT22;700;51.906;8.404;2023-04-29T03:16:03;14.70;99.90
1411;DHT22;700;51.906;8.404;2023-04-29T03:21:03;14.70;99.90
1411;DHT22;700;51.906;8.404;2023-04-29T03:26:04;14.50;99.90
1411;DHT22;700;51.906;8.404;2023-04-29T03:31:05;14.40;99.90
1411;DHT22;700;51.906;8.404;2023-04-29T03:36:07;14.50;99.90
1411;DHT22;700;51.906;8.404;2023-04-29T03:41:08;14.50;99.90
1411;DHT22;700;51.906;8.404;2023-04-29T03:46:09;14.60;99.90
1411;DHT22;700;51.906;8.404;2023-04-29T03:51:10;14.50;99.90
1411;DHT22;700;51.906;8.404;2023-04-29T03:56:11;14.50;99.90
1411;DHT22;700;51.906;8.404;2023-04-29T04:01:11;14.40;99.90
1411;DHT22;700;51.906;8.404;2023-04-29T04:06:12;14.40;99.90
1411;DHT22;700;51.906;8.404;2023-04-29T04:11:13;14.40;99.90
1411;DHT22;700;51.906;8.404;2023-04-29T04:16:16;14.40;99.90
1411;DHT22;700;51.906;8.404;2023-04-29T04:21:16;14.40;99.90
1411;DHT22;700;51.906;8.404;2023-04-29T04:26:17;14.40;99.90
1411;DHT22;700;51.906;8.404;2023-04-29T04:31:17;14.40;99.90
1411;DHT22;700;51.906;8.404;2023-04-29T04:36:21;14.40;99.90
1411;DHT22;700;51.906;8.404;2023-04-29T04:41:21;14.40;99.90
1411;DHT22;700;51.906;8.404;2023-04-29T04:46:22;14.50;99.90
1411;DHT22;700;51.906;8.404;2023-04-29T04:51:22;14.60;99.90
1411;DHT22;700;51.906;8.404;2023-04-29T04:56:25;14.50;99.90
1411;DHT22;700;51.906;8.404;2023-04-29T05:01:26;14.50;99.90
1411;DHT22;700;51.906;8.404;2023-04-29T05:06:31;14.60;99.90
1411;DHT22;700;51.906;8.404;2023-04-29T05:11:36;14.50;99.90
1411;DHT22;700;51.906;8.404;2023-04-29T05:16:37;14.40;99.90
1411;DHT22;700;51.906;8.404;2023-04-29T05:21:38;14.40;99.90
1411;DHT22;700;51.906;8.404;2023-04-29T05:26:39;14.30;99.90
1411;DHT22;700;51.906;8.404;2023-04-29T05:31:42;14.30;99.90
1411;DHT22;700;51.906;8.404;2023-04-29T05:36:45;14.20;99.90
1411;DHT22;700;51.906;8.404;2023-04-29T05:41:47;14.30;99.90
1411;DHT22;700;51.906;8.404;2023-04-29T05:46:48;14.30;99.90
1411;DHT22;700;51.906;8.404;2023-04-29T05:51:51;14.40;99.90
1411;DHT22;700;51.906;8.404;2023-04-29T05:56:51;14.40;99.90
1411;DHT22;700;51.906;8.404;2023-04-29T06:01:52;14.40;99.90
1411;DHT22;700;51.906;8.404;2023-04-29T06:06:54;14.40;99.90
1411;DHT22;700;51.906;8.404;2023-04-29T06:11:56;14.50;99.90
1411;DHT22;700;51.906;8.404;2023-04-29T06:16:57;14.60;99.90
1411;DHT22;700;51.906;8.404;2023-04-29T06:22:00;14.70;99.90
1411;DHT22;700;51.906;8.404;2023-04-29T06:27:00;14.80;99.90
1411;DHT22;700;51.906;8.404;2023-04-29T06:32:05;14.80;99.90
1411;DHT22;700;51.906;8.404;2023-04-29T06:37:06;14.80;99.90
1411;DHT22;700;51.906;8.404;2023-04-29T06:42:09;15.00;99.90
1411;DHT22;700;51.906;8.404;2023-04-29T06:47:10;15.10;99.90
1411;DHT22;700;51.906;8.404;2023-04-29T06:52:14;15.00;99.90
1411;DHT22;700;51.906;8.404;2023-04-29T06:57:15;15.00;99.90
1411;DHT22;700;51.906;8.404;2023-04-29T07:02:15;15.00;99.90
1411;DHT22;700;51.906;8.404;2023-04-29T07:07:16;14.80;99.90
1411;DHT22;700;51.906;8.404;2023-04-29T07:12:16;15.00;99.90
1411;DHT22;700;51.906;8.404;2023-04-29T07:17:17;15.10;99.90
1411;DHT22;700;51.906;8.404;2023-04-29T07:22:18;15.20;99.90
1411;DHT22;700;51.906;8.404;2023-04-29T07:27:18;15.40;99.90
1411;DHT22;700;51.906;8.404;2023-04-29T07:32:22;15.50;99.90
1411;DHT22;700;51.906;8.404;2023-04-29T07:37:22;15.60;99.90
1411;DHT22;700;51.906;8.404;2023-04-29T07:42:23;15.90;99.90
1411;DHT22;700;51.906;8.404;2023-04-29T07:47:26;16.20;99.90
1411;DHT22;700;51.906;8.404;2023-04-29T07:52:29;16.60;99.90
1411;DHT22;700;51.906;8.404;2023-04-29T07:57:30;16.70;99.90
1411;DHT22;700;51.906;8.404;2023-04-29T08:02:30;16.80;99.90
1411;DHT22;700;51.906;8.404;2023-04-29T08:07:33;16.90;99.90
1411;DHT22;700;51.906;8.404;2023-04-29T08:12:36;16.70;99.90
1411;DHT22;700;51.906;8.404;2023-04-29T08:17:39;16.90;99.90
1411;DHT22;700;51.906;8.404;2023-04-29T08:22:42;17.00;99.90
1411;DHT22;700;51.906;8.404;2023-04-29T08:27:45;17.00;99.90
1411;DHT22;700;51.906;8.404;2023-04-29T08:32:46;16.90;99.90
1411;DHT22;700;51.906;8.404;2023-04-29T08:37:47;16.90;99.90
1411;DHT22;700;51.906;8.404;2023-04-29T08:42:48;17.50;99.90
1411;DHT22;700;51.906;8.404;2023-04-29T08:47:50;17.80;99.90
1411;DHT22;700;51.906;8.404;2023-04-29T08:52:51;17.80;99.90
1411;DHT22;700;51.906;8.404;2023-04-29T08:57:53;18.10;99.90
1411;DHT22;700;51.906;8.404;2023-04-29T09:02:56;18.30;99.90
1411;DHT22;700;51.906;8.404;2023-04-29T09:07:57;18.40;99.90
1411;DHT22;700;51.906;8.404;2023-04-29T09:12:59;18.40;99.90
1411;DHT22;700;51.906;8.404;2023-04-29T09:18:05;18.40;99.90
1411;DHT22;700;51.906;8.404;2023-04-29T09:23:05;18.50;99.90
1411;DHT22;700;51.906;8.404;2023-04-29T09:28:15;18.80;99.90
1411;DHT22;700;51.906;8.404;2023-04-29T09:33:21;19.30;99.90
1411;DHT22;700;51.906;8.404;2023-04-29T09:38:21;19.80;99.90
1411;DHT22;700;51.906;8.404;2023-04-29T09:43:22;20.20;99.90
1411;DHT22;700;51.906;8.404;2023-04-29T09:48:32;20.30;99.90
1411;DHT22;700;51.906;8.404;2023-04-29T09:53:33;20.00;99.90
1411;DHT22;700;51.906;8.404;2023-04-29T09:58:37;20.00;99.90
1411;DHT22;700;51.906;8.404;2023-04-29T10:03:41;19.90;99.90
1411;DHT22;700;51.906;8.404;2023-04-29T10:08:43;19.70;99.90
1411;DHT22;700;51.906;8.404;2023-04-29T10:13:48;19.90;99.90
1411;DHT22;700;51.906;8.404;2023-04-29T10:18:54;20.00;99.90
1411;DHT22;700;51.906;8.404;2023-04-29T10:24:01;20.00;99.90
1411;DHT22;700;51.906;8.404;2023-04-29T10:29:04;20.00;99.90
1411;DHT22;700;51.906;8.404;2023-04-29T10:34:10;20.10;99.90
1411;DHT22;700;51.906;8.404;2023-04-29T10:39:20;20.20;99.90
1411;DHT22;700;51.906;8.404;2023-04-29T10:44:23;20.40;99.90
1411;DHT22;700;51.906;8.404;2023-04-29T10:49:23;20.60;99.90
1411;DHT22;700;51.906;8.404;2023-04-29T10:54:32;20.30;99.90
1411;DHT22;700;51.906;8.404;2023-04-29T11:04:34;20.40;99.90
1411;DHT22;700;51.906;8.404;2023-04-29T11:09:35;19.80;99.90
1411;DHT22;700;51.906;8.404;2023-04-29T11:14:48;19.60;99.90
1411;DHT22;700;51.906;8.404;2023-04-29T11:19:50;19.50;99.90
1411;DHT22;700;51.906;8.404;2023-04-29T11:29:56;19.90;99.90
1411;DHT22;700;51.906;8.404;2023-04-29T11:35:18;20.20;99.90
1411;DHT22;700;51.906;8.404;2023-04-29T11:40:22;20.90;99.90
1411;DHT22;700;51.906;8.404;2023-04-29T11:45:22;21.50;99.90
1411;DHT22;700;51.906;8.404;2023-04-29T11:50:23;21.90;99.90
1411;DHT22;700;51.906;8.404;2023-04-29T11:55:24;21.90;99.80
1411;DHT22;700;51.906;8.404;2023-04-29T12:00:25;21.80;99.90
1411;DHT22;700;51.906;8.404;2023-04-29T12:05:25;21.80;99.90
1411;DHT22;700;51.906;8.404;2023-04-29T12:10:26;21.60;99.90
1411;DHT22;700;51.906;8.404;2023-04-29T12:15:30;21.30;99.90
1411;DHT22;700;51.906;8.404;2023-04-29T12:20:34;20.90;99.90
1411;DHT22;700;51.906;8.404;2023-04-29T12:25:35;20.70;99.90
1411;DHT22;700;51.906;8.404;2023-04-29T12:30:40;20.90;99.90
1411;DHT22;700;51.906;8.404;2023-04-29T12:35:42;21.40;99.90
1411;DHT22;700;51.906;8.404;2023-04-29T12:40:48;22.30;99.20
1411;DHT22;700;51.906;8.404;2023-04-29T12:46:14;22.90;96.70
1411;DHT22;700;51.906;8.404;2023-04-29T12:51:18;22.90;96.20
1411;DHT22;700;51.906;8.404;2023-04-29T12:56:18;22.60;95.80
1411;DHT22;700;51.906;8.404;2023-04-29T13:01:21;22.10;95.90
1411;DHT22;700;51.906;8.404;2023-04-29T13:06:23;21.40;97.20
1411;DHT22;700;51.906;8.404;2023-04-29T13:11:26;20.90;98.70
1411;DHT22;700;51.906;8.404;2023-04-29T13:16:31;20.40;99.00
1411;DHT22;700;51.906;8.404;2023-04-29T13:21:34;20.00;99.40
1411;DHT22;700;51.906;8.404;2023-04-29T13:26:40;20.00;99.70
1411;DHT22;700;51.906;8.404;2023-04-29T13:31:42;19.80;99.90
1411;DHT22;700;51.906;8.404;2023-04-29T13:36:46;20.00;99.90
1411;DHT22;700;51.906;8.404;2023-04-29T13:41:46;20.10;99.80
1411;DHT22;700;51.906;8.404;2023-04-29T13:46:47;20.10;98.70
1411;DHT22;700;51.906;8.404;2023-04-29T13:51:47;19.80;99.20
1411;DHT22;700;51.906;8.404;2023-04-29T13:56:50;19.60;99.90
1411;DHT22;700;51.906;8.404;2023-04-29T14:01:51;19.30;99.90
1411;DHT22;700;51.906;8.404;2023-04-29T14:06:52;19.50;99.90
1411;DHT22;700;51.906;8.404;2023-04-29T14:11:53;19.70;99.90
1411;DHT22;700;51.906;8.404;2023-04-29T14:16:54;19.80;99.70
1411;DHT22;700;51.906;8.404;2023-04-29T14:21:57;19.60;99.80
1411;DHT22;700;51.906;8.404;2023-04-29T14:26:58;19.50;99.40
1411;DHT22;700;51.906;8.404;2023-04-29T14:32:01;19.80;99.90
1411;DHT22;700;51.906;8.404;2023-04-29T14:37:04;20.10;99.40
1411;DHT22;700;51.906;8.404;2023-04-29T14:42:04;20.40;99.30
1411;DHT22;700;51.906;8.404;2023-04-29T14:47:05;20.60;98.50
1411;DHT22;700;51.906;8.404;2023-04-29T14:52:08;20.80;97.50
1411;DHT22;700;51.906;8.404;2023-04-29T14:57:09;20.70;97.70
1411;DHT22;700;51.906;8.404;2023-04-29T15:02:10;20.60;98.60
1411;DHT22;700;51.906;8.404;2023-04-29T15:07:12;20.60;98.70
1411;DHT22;700;51.906;8.404;2023-04-29T15:12:15;20.70;98.20
1411;DHT22;700;51.906;8.404;2023-04-29T15:17:19;21.00;98.50
1411;DHT22;700;51.906;8.404;2023-04-29T15:22:22;21.10;97.90
1411;DHT22;700;51.906;8.404;2023-04-29T15:27:23;21.00;95.70
1411;DHT22;700;51.906;8.404;2023-04-29T15:32:24;21.20;96.60
1411;DHT22;700;51.906;8.404;2023-04-29T15:37:30;21.70;95.10
1411;DHT22;700;51.906;8.404;2023-04-29T15:42:31;21.80;93.40
1411;DHT22;700;51.906;8.404;2023-04-29T15:47:34;21.60;92.00
1411;DHT22;700;51.906;8.404;2023-04-29T15:52:35;21.30;92.70
1411;DHT22;700;51.906;8.404;2023-04-29T15:57:36;21.10;92.80
1411;DHT22;700;51.906;8.404;2023-04-29T16:02:40;20.80;94.30
1411;DHT22;700;51.906;8.404;2023-04-29T16:07:43;20.60;93.60
1411;DHT22;700;51.906;8.404;2023-04-29T16:12:44;20.40;93.40
1411;DHT22;700;51.906;8.404;2023-04-29T16:17:44;20.10;94.50
1411;DHT22;700;51.906;8.404;2023-04-29T16:22:47;19.80;94.60
1411;DHT22;700;51.906;8.404;2023-04-29T16:27:48;19.70;95.20
1411;DHT22;700;51.906;8.404;2023-04-29T16:32:48;19.50;95.00
1411;DHT22;700;51.906;8.404;2023-04-29T16:37:49;19.40;95.40
1411;DHT22;700;51.906;8.404;2023-04-29T16:42:52;19.00;96.20
1411;DHT22;700;51.906;8.404;2023-04-29T16:47:59;19.00;95.60
1411;DHT22;700;51.906;8.404;2023-04-29T16:53:01;18.90;96.70
1411;DHT22;700;51.906;8.404;2023-04-29T16:58:03;18.90;96.90
1411;DHT22;700;51.906;8.404;2023-04-29T17:03:04;18.80;97.70
1411;DHT22;700;51.906;8.404;2023-04-29T17:08:05;18.60;97.80
1411;DHT22;700;51.906;8.404;2023-04-29T17:13:06;18.60;98.20
1411;DHT22;700;51.906;8.404;2023-04-29T17:18:06;18.60;98.50
1411;DHT22;700;51.906;8.404;2023-04-29T17:23:07;18.30;98.60
1411;DHT22;700;51.906;8.404;2023-04-29T17:28:08;18.30;98.90
1411;DHT22;700;51.906;8.404;2023-04-29T17:33:09;18.10;98.90
1411;DHT22;700;51.906;8.404;2023-04-29T17:38:12;18.00;99.20
1411;DHT22;700;51.906;8.404;2023-04-29T17:43:13;18.10;99.00
1411;DHT22;700;51.906;8.404;2023-04-29T17:48:13;18.00;98.70
1411;DHT22;700;51.906;8.404;2023-04-29T17:53:17;17.90;99.20
1411;DHT22;700;51.906;8.404;2023-04-29T17:58:18;17.90;99.40
1411;DHT22;700;51.906;8.404;2023-04-29T18:03:18;17.80;99.40
1411;DHT22;700;51.906;8.404;2023-04-29T18:08:19;17.80;99.40
1411;DHT22;700;51.906;8.404;2023-04-29T18:13:22;17.70;99.60
1411;DHT22;700;51.906;8.404;2023-04-29T18:18:23;17.70;99.70
1411;DHT22;700;51.906;8.404;2023-04-29T18:23:24;17.70;99.40
1411;DHT22;700;51.906;8.404;2023-04-29T18:28:24;17.60;99.80
1411;DHT22;700;51.906;8.404;2023-04-29T18:33:25;17.50;99.60
1411;DHT22;700;51.906;8.404;2023-04-29T18:38:26;17.30;99.90
1411;DHT22;700;51.906;8.404;2023-04-29T18:43:26;17.00;99.90
1411;DHT22;700;51.906;8.404;2023-04-29T18:48:32;16.70;99.90
1411;DHT22;700;51.906;8.404;2023-04-29T18:53:37;16.40;99.90
1411;DHT22;700;51.906;8.404;2023-04-29T18:58:40;16.30;99.90
1411;DHT22;700;51.906;8.404;2023-04-29T19:03:41;16.10;99.90
1411;DHT22;700;51.906;8.404;2023-04-29T19:08:44;15.90;99.90
1411;DHT22;700;51.906;8.404;2023-04-29T19:13:47;15.60;99.90
1411;DHT22;700;51.906;8.404;2023-04-29T19:18:47;15.50;99.90
1411;DHT22;700;51.906;8.404;2023-04-29T19:23:50;15.30;99.90
1411;DHT22;700;51.906;8.404;2023-04-29T19:28:51;14.90;99.90
1411;DHT22;700;51.906;8.404;2023-04-29T19:33:52;14.90;99.90
1411;DHT22;700;51.906;8.404;2023-04-29T19:38:53;14.80;99.90
1411;DHT22;700;51.906;8.404;2023-04-29T19:43:56;14.80;99.90
1411;DHT22;700;51.906;8.404;2023-04-29T19:48:56;14.50;99.90
1411;DHT22;700;51.906;8.404;2023-04-29T19:53:57;14.40;99.90
1411;DHT22;700;51.906;8.404;2023-04-29T19:59:01;14.30;99.90
1411;DHT22;700;51.906;8.404;2023-04-29T20:04:01;14.10;99.90
1411;DHT22;700;51.906;8.404;2023-04-29T20:09:05;14.00;99.90
1411;DHT22;700;51.906;8.404;2023-04-29T20:14:06;13.90;99.90
1411;DHT22;700;51.906;8.404;2023-04-29T20:19:09;13.80;99.90
1411;DHT22;700;51.906;8.404;2023-04-29T20:24:09;13.80;99.90
1411;DHT22;700;51.906;8.404;2023-04-29T20:29:10;13.70;99.90
1411;DHT22;700;51.906;8.404;2023-04-29T20:34:11;13.50;99.90
1411;DHT22;700;51.906;8.404;2023-04-29T20:39:16;13.40;99.90
1411;DHT22;700;51.906;8.404;2023-04-29T20:44:17;13.30;99.90
1411;DHT22;700;51.906;8.404;2023-04-29T20:49:18;13.20;99.90
1411;DHT22;700;51.906;8.404;2023-04-29T20:54:19;13.00;99.90
1411;DHT22;700;51.906;8.404;2023-04-29T20:59:19;12.80;99.90
1411;DHT22;700;51.906;8.404;2023-04-29T21:04:20;12.80;99.90
1411;DHT22;700;51.906;8.404;2023-04-29T21:09:23;12.50;99.90
1411;DHT22;700;51.906;8.404;2023-04-29T21:14:26;12.50;99.90
1411;DHT22;700;51.906;8.404;2023-04-29T21:19:27;12.40;99.90
1411;DHT22;700;51.906;8.404;2023-04-29T21:24:30;12.40;99.90
1411;DHT22;700;51.906;8.404;2023-04-29T21:29:33;12.40;99.90
1411;DHT22;700;51.906;8.404;2023-04-29T21:34:34;12.30;99.90
1411;DHT22;700;51.906;8.404;2023-04-29T21:39:35;12.40;99.90
1411;DHT22;700;51.906;8.404;2023-04-29T21:44:39;12.40;99.90
1411;DHT22;700;51.906;8.404;2023-04-29T21:49:42;12.40;99.90
1411;DHT22;700;51.906;8.404;2023-04-29T21:54:42;12.50;99.90
1411;DHT22;700;51.906;8.404;2023-04-29T21:59:45;12.40;99.90
1411;DHT22;700;51.906;8.404;2023-04-29T22:04:48;12.40;99.90
1411;DHT22;700;51.906;8.404;2023-04-29T22:09:52;12.30;99.90
1411;DHT22;700;51.906;8.404;2023-04-29T22:14:53;12.20;99.90
1411;DHT22;700;51.906;8.404;2023-04-29T22:19:56;12.20;99.90
1411;DHT22;700;51.906;8.404;2023-04-29T22:24:56;12.20;99.90
1411;DHT22;700;51.906;8.404;2023-04-29T22:29:57;12.10;99.90
1411;DHT22;700;51.906;8.404;2023-04-29T22:34:57;12.00;99.90
1411;DHT22;700;51.906;8.404;2023-04-29T22:39:58;11.90;99.90
1411;DHT22;700;51.906;8.404;2023-04-29T22:44:59;11.70;99.90
1411;DHT22;700;51.906;8.404;2023-04-29T22:49:59;11.80;99.90
1411;DHT22;700;51.906;8.404;2023-04-29T22:55:00;11.60;99.90
1411;DHT22;700;51.906;8.404;2023-04-29T23:00:01;11.50;99.90
1411;DHT22;700;51.906;8.404;2023-04-29T23:05:01;11.40;99.90
1411;DHT22;700;51.906;8.404;2023-04-29T23:10:05;11.40;99.90
1411;DHT22;700;51.906;8.404;2023-04-29T23:15:08;11.30;99.90
1411;DHT22;700;51.906;8.404;2023-04-29T23:20:09;11.10;99.90
1411;DHT22;700;51.906;8.404;2023-04-29T23:25:12;11.30;99.90
1411;DHT22;700;51.906;8.404;2023-04-29T23:30:14;11.10;99.90
1411;DHT22;700;51.906;8.404;2023-04-29T23:35:14;11.00;99.90
1411;DHT22;700;51.906;8.404;2023-04-29T23:40:15;10.70;99.90
1411;DHT22;700;51.906;8.404;2023-04-29T23:45:16;10.80;99.90
1411;DHT22;700;51.906;8.404;2023-04-29T23:50:19;10.70;99.90
1411;DHT22;700;51.906;8.404;2023-04-29T23:55:19;10.70;99.90
